Time;durP1;ratioP1;P1;durP2;ratioP2;P2;SDS_P1;SDS_P2;PMS_P1;PMS_P2;Temp;Humidity;BMP_temperature;BMP_pressure;BME280_temperature;BME280_humidity;BME280_pressure;Samples;Min_cycle;Max_cycle;Signal;HPM_P1;HPM_P2
2022/10/31 00:00:58;;;;;;;;;;;12.20;99.90;;;;;;5060911;28;19955;-75
2022/10/31 00:03:23;;;;;;;;;;;12.20;99.90;;;;;;5062186;28;20218;-75
2022/10/31 00:05:49;;;;;;;;;;;12.20;99.90;;;;;;5062108;28;20111;-75
2022/10/31 00:08:15;;;;;;;;;;;12.20;99.90;;;;;;5060756;28;19951;-74
2022/10/31 00:10:41;;;;;;;;;;;12.10;99.90;;;;;;5060908;28;19948;-74
2022/10/31 00:13:07;;;;;;;;;;;12.10;99.90;;;;;;5060888;28;20231;-75
2022/10/31 00:15:37;;;;;;;;;;;12.10;99.90;;;;;;5060715;28;19920;-74
2022/10/31 00:18:03;;;;;;;;;;;12.10;99.90;;;;;;5061720;28;19940;-74
2022/10/31 00:20:29;;;;;;;;;;;12.00;99.90;;;;;;5045631;28;20111;-74
2022/10/31 00:22:57;;;;;;;;;;;11.90;99.90;;;;;;5065734;28;19923;-75
2022/10/31 00:25:23;;;;;;;;;;;11.90;99.90;;;;;;5065700;28;20111;-75
2022/10/31 00:27:48;;;;;;;;;;;11.90;99.90;;;;;;5047523;28;19939;-75
2022/10/31 00:30:14;;;;;;;;;;;11.90;99.90;;;;;;5065473;28;20203;-75
2022/10/31 00:32:40;;;;;;;;;;;11.90;99.90;;;;;;5064390;28;19908;-74
2022/10/31 00:35:06;;;;;;;;;;;11.90;99.90;;;;;;5065591;28;19944;-75
2022/10/31 00:37:32;;;;;;;;;;;11.90;99.90;;;;;;5065008;28;19913;-75
2022/10/31 00:39:57;;;;;;;;;;;11.90;99.90;;;;;;5065513;28;19963;-75
2022/10/31 00:42:23;;;;;;;;;;;11.90;99.90;;;;;;5064267;28;19909;-75
2022/10/31 00:44:48;;;;;;;;;;;11.90;99.90;;;;;;5064042;28;19917;-75
2022/10/31 00:47:14;;;;;;;;;;;11.90;99.90;;;;;;5063833;28;19917;-75
2022/10/31 00:49:40;;;;;;;;;;;11.90;99.90;;;;;;5065282;28;19947;-75
2022/10/31 00:52:05;;;;;;;;;;;11.90;99.90;;;;;;5065201;28;19916;-75
2022/10/31 00:54:31;;;;;;;;;;;11.90;99.90;;;;;;5063934;28;19920;-74
2022/10/31 00:56:57;;;;;;;;;;;11.80;99.90;;;;;;5064863;28;19909;-74
2022/10/31 00:59:23;;;;;;;;;;;11.80;99.90;;;;;;5063721;28;19909;-75
2022/10/31 01:01:48;;;;;;;;;;;11.80;99.90;;;;;;5065019;28;19912;-75
2022/10/31 01:04:14;;;;;;;;;;;11.80;99.90;;;;;;5065048;28;19924;-75
2022/10/31 01:06:39;;;;;;;;;;;11.80;99.90;;;;;;5064709;28;19916;-75
2022/10/31 01:09:05;;;;;;;;;;;11.70;99.90;;;;;;5064837;28;19909;-74
2022/10/31 01:11:31;;;;;;;;;;;11.70;99.90;;;;;;5064904;28;19916;-75
2022/10/31 01:13:56;;;;;;;;;;;11.60;99.90;;;;;;5064588;28;20212;-74
2022/10/31 01:16:24;;;;;;;;;;;11.60;99.90;;;;;;5064652;28;19915;-74
2022/10/31 01:18:49;;;;;;;;;;;11.50;99.90;;;;;;5063523;28;20275;-74
2022/10/31 01:21:17;;;;;;;;;;;11.50;99.90;;;;;;5046939;28;19947;-74
2022/10/31 01:23:43;;;;;;;;;;;11.40;99.90;;;;;;5063471;28;19908;-74
2022/10/31 01:26:25;;;;;;;;;;;11.40;99.90;;;;;;5064406;28;19908;-74
2022/10/31 01:28:55;;;;;;;;;;;11.30;99.90;;;;;;5063509;28;19908;-74
2022/10/31 01:31:22;;;;;;;;;;;11.30;99.90;;;;;;5062936;28;19909;-74
2022/10/31 01:33:48;;;;;;;;;;;11.30;99.90;;;;;;5046139;28;19948;-74
2022/10/31 01:36:19;;;;;;;;;;;11.30;99.90;;;;;;5063021;28;19924;-75
2022/10/31 01:38:45;;;;;;;;;;;11.30;99.90;;;;;;5046503;28;19920;-74
2022/10/31 01:41:12;;;;;;;;;;;11.30;99.90;;;;;;5063291;28;19920;-74
2022/10/31 01:43:53;;;;;;;;;;;11.20;99.90;;;;;;5063249;28;19950;-75
2022/10/31 01:46:26;;;;;;;;;;;11.30;99.90;;;;;;5062734;28;19909;-74
2022/10/31 01:48:52;;;;;;;;;;;11.30;99.90;;;;;;5063092;28;19936;-74
2022/10/31 01:51:19;;;;;;;;;;;11.40;99.90;;;;;;5063159;28;19908;-74
2022/10/31 01:53:45;;;;;;;;;;;11.30;99.90;;;;;;5062956;28;19927;-74
2022/10/31 01:56:10;;;;;;;;;;;11.30;99.90;;;;;;5063919;28;19910;-74
2022/10/31 01:58:36;;;;;;;;;;;11.30;99.90;;;;;;5062834;28;19963;-75
2022/10/31 02:01:02;;;;;;;;;;;11.10;99.90;;;;;;5062617;28;20223;-74
2022/10/31 02:03:27;;;;;;;;;;;11.00;99.90;;;;;;5062793;28;20199;-74
2022/10/31 02:05:54;;;;;;;;;;;11.00;99.90;;;;;;5062737;28;19913;-74
2022/10/31 02:08:30;;;;;;;;;;;11.00;99.90;;;;;;5062534;28;19917;-74
2022/10/31 02:10:56;;;;;;;;;;;10.90;99.90;;;;;;5063787;28;20116;-74
2022/10/31 02:13:21;;;;;;;;;;;10.90;99.90;;;;;;5062538;28;19931;-74
2022/10/31 02:15:49;;;;;;;;;;;10.90;99.90;;;;;;5062357;28;20127;-75
2022/10/31 02:18:15;;;;;;;;;;;10.90;99.90;;;;;;5062335;28;19915;-74
2022/10/31 02:20:55;;;;;;;;;;;10.90;99.90;;;;;;5062614;28;19909;-75
2022/10/31 02:23:46;;;;;;;;;;;10.90;99.90;;;;;;5062651;28;19916;-74
2022/10/31 02:26:49;;;;;;;;;;;10.90;99.90;;;;;;5062392;28;19924;-74
2022/10/31 02:29:40;;;;;;;;;;;10.90;99.90;;;;;;5063348;28;19913;-74
2022/10/31 02:32:27;;;;;;;;;;;10.90;99.90;;;;;;5063428;28;20203;-75
2022/10/31 02:34:58;;;;;;;;;;;10.90;99.90;;;;;;5062323;28;20034;-75
2022/10/31 02:37:34;;;;;;;;;;;10.80;99.90;;;;;;5088321;22;19921;-71
2022/10/31 02:40:25;;;;;;;;;;;10.90;99.90;;;;;;5061919;28;20142;-72
2022/10/31 02:43:06;;;;;;;;;;;10.80;99.90;;;;;;5053827;28;19908;-72
2022/10/31 02:45:36;;;;;;;;;;;10.80;99.90;;;;;;5044680;28;20105;-71
2022/10/31 02:48:07;;;;;;;;;;;10.90;99.90;;;;;;5062620;28;19909;-71
2022/10/31 02:50:34;;;;;;;;;;;10.90;99.90;;;;;;5045932;28;19916;-71
2022/10/31 02:53:00;;;;;;;;;;;10.90;99.90;;;;;;5044959;28;19909;-72
2022/10/31 02:55:26;;;;;;;;;;;10.80;99.90;;;;;;5045340;28;19919;-72
2022/10/31 02:57:54;;;;;;;;;;;10.80;99.90;;;;;;5062513;28;19920;-72
2022/10/31 03:00:19;;;;;;;;;;;10.80;99.90;;;;;;5045074;28;19909;-71
2022/10/31 03:03:32;;;;;;;;;;;10.80;99.90;;;;;;5044961;28;19959;-72
2022/10/31 03:06:20;;;;;;;;;;;10.70;99.90;;;;;;5009700;28;19920;-72
2022/10/31 03:08:54;;;;;;;;;;;10.70;99.90;;;;;;5060398;28;19915;-72
2022/10/31 03:11:22;;;;;;;;;;;10.70;99.90;;;;;;5064882;28;19988;-72
2022/10/31 03:14:06;;;;;;;;;;;10.70;99.90;;;;;;5064887;28;19920;-72
2022/10/31 03:16:39;;;;;;;;;;;10.70;99.90;;;;;;5064553;28;19917;-72
2022/10/31 03:19:10;;;;;;;;;;;10.70;99.90;;;;;;5048858;28;19908;-71
2022/10/31 03:21:47;;;;;;;;;;;10.70;99.90;;;;;;5064939;28;19908;-72
2022/10/31 03:24:13;;;;;;;;;;;10.60;99.90;;;;;;5064642;28;19987;-72
2022/10/31 03:26:44;;;;;;;;;;;10.60;99.90;;;;;;5047652;28;19908;-72
2022/10/31 03:29:11;;;;;;;;;;;10.60;99.90;;;;;;5064728;28;20227;-72
2022/10/31 03:31:43;;;;;;;;;;;10.60;99.90;;;;;;5064553;28;19940;-72
2022/10/31 03:34:08;;;;;;;;;;;10.70;99.90;;;;;;5064679;28;20211;-72
2022/10/31 03:36:34;;;;;;;;;;;10.60;99.90;;;;;;5081080;28;20018;-72
2022/10/31 03:39:01;;;;;;;;;;;10.60;99.90;;;;;;5064165;28;20095;-72
2022/10/31 03:41:29;;;;;;;;;;;10.70;99.90;;;;;;5064607;28;19958;-72
2022/10/31 03:43:57;;;;;;;;;;;10.70;99.90;;;;;;5064196;28;19943;-72
2022/10/31 03:46:22;;;;;;;;;;;10.70;99.90;;;;;;5047924;28;20048;-72
2022/10/31 03:48:48;;;;;;;;;;;10.70;99.90;;;;;;5064455;28;19936;-72
2022/10/31 03:51:24;;;;;;;;;;;10.70;99.90;;;;;;5082359;28;19909;-72
2022/10/31 03:53:54;;;;;;;;;;;10.60;99.90;;;;;;5064078;28;20203;-72
2022/10/31 03:56:43;;;;;;;;;;;10.50;99.90;;;;;;5067271;28;19965;-72
2022/10/31 03:59:21;;;;;;;;;;;10.50;99.90;;;;;;5085196;28;19958;-72
2022/10/31 04:01:49;;;;;;;;;;;10.50;99.90;;;;;;5070210;28;19916;-72
2022/10/31 04:04:15;;;;;;;;;;;10.50;99.90;;;;;;5071177;28;19915;-72
2022/10/31 04:06:41;;;;;;;;;;;10.50;99.90;;;;;;5088229;28;19916;-72
2022/10/31 04:09:07;;;;;;;;;;;10.50;99.90;;;;;;5071048;28;19938;-71
2022/10/31 04:11:35;;;;;;;;;;;10.50;99.90;;;;;;5085226;28;19908;-71
2022/10/31 04:14:01;;;;;;;;;;;10.60;99.90;;;;;;5068135;28;19918;-72
2022/10/31 04:16:27;;;;;;;;;;;10.50;99.90;;;;;;5051114;28;19916;-71
2022/10/31 04:18:52;;;;;;;;;;;10.50;99.90;;;;;;5067900;28;19916;-71
2022/10/31 04:21:18;;;;;;;;;;;10.50;99.90;;;;;;5085810;28;19927;-71
2022/10/31 04:23:44;;;;;;;;;;;10.40;99.90;;;;;;5085491;28;19909;-71
2022/10/31 04:26:12;;;;;;;;;;;10.40;99.90;;;;;;5085461;28;19908;-72
2022/10/31 04:28:38;;;;;;;;;;;10.30;99.90;;;;;;5051269;28;19954;-71
2022/10/31 04:31:04;;;;;;;;;;;10.30;99.90;;;;;;5067772;28;19971;-71
2022/10/31 04:33:29;;;;;;;;;;;10.30;99.90;;;;;;5067723;28;20207;-71
2022/10/31 04:35:55;;;;;;;;;;;10.30;99.90;;;;;;5085484;28;19915;-71
2022/10/31 04:38:21;;;;;;;;;;;10.20;99.90;;;;;;5067111;28;19913;-72
2022/10/31 04:40:46;;;;;;;;;;;10.20;99.90;;;;;;5085450;28;19908;-72
2022/10/31 04:43:12;;;;;;;;;;;10.20;99.90;;;;;;5085410;28;19924;-72
2022/10/31 04:45:37;;;;;;;;;;;10.20;99.90;;;;;;5085292;28;19915;-72
2022/10/31 04:48:03;;;;;;;;;;;10.20;99.90;;;;;;5084942;28;20211;-72
2022/10/31 04:50:29;;;;;;;;;;;10.20;99.90;;;;;;5085317;28;19908;-72
2022/10/31 04:52:55;;;;;;;;;;;10.20;99.90;;;;;;5084848;28;20223;-72
2022/10/31 04:55:20;;;;;;;;;;;10.20;99.90;;;;;;5085159;28;20111;-72
2022/10/31 04:57:47;;;;;;;;;;;10.20;99.90;;;;;;5085031;28;19909;-72
2022/10/31 05:00:14;;;;;;;;;;;10.20;99.90;;;;;;5067414;28;19916;-72
2022/10/31 05:02:49;;;;;;;;;;;10.20;99.90;;;;;;5050806;28;19954;-72
2022/10/31 05:05:16;;;;;;;;;;;10.30;99.90;;;;;;5067395;28;19909;-72
2022/10/31 05:07:42;;;;;;;;;;;10.30;99.90;;;;;;5065754;28;19912;-72
2022/10/31 05:10:09;;;;;;;;;;;10.30;99.90;;;;;;5067133;28;19908;-72
2022/10/31 05:12:35;;;;;;;;;;;10.30;99.90;;;;;;5067114;28;19943;-72
2022/10/31 05:15:01;;;;;;;;;;;10.30;99.90;;;;;;5084700;28;19947;-72
2022/10/31 05:17:26;;;;;;;;;;;10.30;99.90;;;;;;5049924;28;20160;-72
2022/10/31 05:19:52;;;;;;;;;;;10.40;99.90;;;;;;5084697;28;20100;-73
2022/10/31 05:22:18;;;;;;;;;;;10.40;99.90;;;;;;5084241;28;19978;-73
2022/10/31 05:24:43;;;;;;;;;;;10.40;99.90;;;;;;5066639;28;19912;-72
2022/10/31 05:27:09;;;;;;;;;;;10.40;99.90;;;;;;5084248;28;19912;-72
2022/10/31 05:29:35;;;;;;;;;;;10.50;99.90;;;;;;5081180;28;19909;-73
2022/10/31 05:32:00;;;;;;;;;;;10.50;99.90;;;;;;5067229;28;19924;-73
2022/10/31 05:34:26;;;;;;;;;;;10.40;99.90;;;;;;5064299;28;19917;-74
2022/10/31 05:36:51;;;;;;;;;;;10.50;99.90;;;;;;5063958;28;19924;-73
2022/10/31 05:39:17;;;;;;;;;;;10.50;99.90;;;;;;5064159;28;19916;-73
2022/10/31 05:41:43;;;;;;;;;;;10.40;99.90;;;;;;5064452;28;19909;-73
2022/10/31 05:44:08;;;;;;;;;;;10.40;99.90;;;;;;5064258;28;19908;-73
2022/10/31 05:46:34;;;;;;;;;;;10.30;99.90;;;;;;5063906;28;20220;-74
2022/10/31 05:49:00;;;;;;;;;;;10.30;99.90;;;;;;5029830;28;20248;-73
2022/10/31 05:51:25;;;;;;;;;;;10.20;99.90;;;;;;5064041;28;20138;-73
2022/10/31 05:53:51;;;;;;;;;;;10.30;99.90;;;;;;5034584;28;20001;-73
2022/10/31 05:56:17;;;;;;;;;;;10.20;99.90;;;;;;5056381;28;19920;-73
2022/10/31 05:58:42;;;;;;;;;;;10.20;99.90;;;;;;5071532;28;20120;-73
2022/10/31 06:01:08;;;;;;;;;;;10.10;99.90;;;;;;5058481;28;19912;-73
2022/10/31 06:03:34;;;;;;;;;;;10.10;99.90;;;;;;5049559;28;19915;-72
2022/10/31 06:05:59;;;;;;;;;;;10.10;99.90;;;;;;5065861;28;20203;-73
2022/10/31 06:08:25;;;;;;;;;;;10.10;99.90;;;;;;5062510;28;20119;-72
2022/10/31 06:10:52;;;;;;;;;;;10.00;99.90;;;;;;5078255;28;19912;-72
2022/10/31 06:13:18;;;;;;;;;;;10.10;99.90;;;;;;5060088;28;19963;-72
2022/10/31 06:15:44;;;;;;;;;;;10.00;99.90;;;;;;5057358;28;19909;-72
2022/10/31 06:18:09;;;;;;;;;;;10.10;99.90;;;;;;5083190;28;19909;-72
2022/10/31 06:20:35;;;;;;;;;;;10.10;99.90;;;;;;5054609;28;20208;-73
2022/10/31 06:23:01;;;;;;;;;;;10.10;99.90;;;;;;5059940;28;20250;-73
2022/10/31 06:25:27;;;;;;;;;;;10.20;99.90;;;;;;5082677;28;19920;-73
2022/10/31 06:27:52;;;;;;;;;;;10.20;99.90;;;;;;5054696;28;19916;-73
2022/10/31 06:30:18;;;;;;;;;;;10.30;99.90;;;;;;5075546;28;19940;-74
2022/10/31 06:32:44;;;;;;;;;;;10.30;99.90;;;;;;5048779;28;19916;-75
2022/10/31 06:35:09;;;;;;;;;;;10.30;99.90;;;;;;5060591;28;19983;-74
2022/10/31 06:37:35;;;;;;;;;;;10.30;99.90;;;;;;5060929;28;19912;-74
2022/10/31 06:40:01;;;;;;;;;;;10.20;99.90;;;;;;5083279;28;20200;-75
2022/10/31 06:42:27;;;;;;;;;;;10.20;99.90;;;;;;5083236;28;20234;-74
2022/10/31 06:44:52;;;;;;;;;;;10.30;99.90;;;;;;5083211;28;19924;-75
2022/10/31 06:47:18;;;;;;;;;;;10.30;99.90;;;;;;5082839;28;19923;-74
2022/10/31 06:49:43;;;;;;;;;;;10.30;99.90;;;;;;5082982;28;19915;-75
2022/10/31 06:52:09;;;;;;;;;;;10.30;99.90;;;;;;5083073;28;19909;-75
2022/10/31 06:54:35;;;;;;;;;;;10.30;99.90;;;;;;5082644;28;19912;-75
2022/10/31 06:57:00;;;;;;;;;;;10.40;99.90;;;;;;5081651;28;19915;-75
2022/10/31 06:59:26;;;;;;;;;;;10.50;99.90;;;;;;5065023;28;20227;-75
2022/10/31 07:01:54;;;;;;;;;;;10.50;99.90;;;;;;5065106;28;19939;-74
2022/10/31 07:04:20;;;;;;;;;;;10.60;99.90;;;;;;5081723;28;19908;-75
2022/10/31 07:06:46;;;;;;;;;;;10.60;99.90;;;;;;5082476;28;20195;-75
2022/10/31 07:09:11;;;;;;;;;;;10.60;99.90;;;;;;5082488;28;19909;-74
2022/10/31 07:11:37;;;;;;;;;;;10.70;99.90;;;;;;5082832;28;19916;-74
2022/10/31 07:14:03;;;;;;;;;;;10.70;99.90;;;;;;5082740;28;19966;-75
2022/10/31 07:16:28;;;;;;;;;;;10.80;99.90;;;;;;5064992;28;20032;-74
2022/10/31 07:18:54;;;;;;;;;;;10.80;99.90;;;;;;5064682;28;19908;-75
2022/10/31 07:21:19;;;;;;;;;;;10.80;99.90;;;;;;5082632;28;20250;-75
2022/10/31 07:23:48;;;;;;;;;;;10.90;99.90;;;;;;5064707;28;20260;-75
2022/10/31 07:26:13;;;;;;;;;;;10.90;99.90;;;;;;5064536;28;19908;-75
2022/10/31 07:28:39;;;;;;;;;;;10.90;99.90;;;;;;5082499;28;19908;-75
2022/10/31 07:31:05;;;;;;;;;;;10.90;99.90;;;;;;5082083;28;20160;-75
2022/10/31 07:33:30;;;;;;;;;;;11.00;99.90;;;;;;5064595;28;19935;-74
2022/10/31 07:35:56;;;;;;;;;;;11.00;99.90;;;;;;5082369;28;19912;-74
2022/10/31 07:38:22;;;;;;;;;;;11.10;99.90;;;;;;5080814;28;19927;-74
2022/10/31 07:40:54;;;;;;;;;;;11.10;99.90;;;;;;5082606;28;19948;-74
2022/10/31 07:43:19;;;;;;;;;;;11.00;99.90;;;;;;5065191;28;19909;-74
2022/10/31 07:45:52;;;;;;;;;;;11.00;99.90;;;;;;5082401;28;20230;-74
2022/10/31 07:48:17;;;;;;;;;;;11.10;99.90;;;;;;5064429;28;19944;-74
2022/10/31 07:50:44;;;;;;;;;;;11.10;99.90;;;;;;5082414;28;19908;-74
2022/10/31 07:53:10;;;;;;;;;;;11.10;99.90;;;;;;5082164;28;19909;-74
2022/10/31 07:55:36;;;;;;;;;;;11.10;99.90;;;;;;5064559;28;19909;-75
2022/10/31 07:58:03;;;;;;;;;;;11.20;99.90;;;;;;5082299;28;20218;-74
2022/10/31 08:00:28;;;;;;;;;;;11.20;99.90;;;;;;5064589;28;19940;-75
2022/10/31 08:03:01;;;;;;;;;;;11.30;99.90;;;;;;5082396;28;19909;-74
2022/10/31 08:05:27;;;;;;;;;;;11.40;99.90;;;;;;5065090;28;19908;-76
2022/10/31 08:07:52;;;;;;;;;;;11.50;99.90;;;;;;5081791;28;19916;-74
2022/10/31 08:10:18;;;;;;;;;;;11.50;99.90;;;;;;5063726;28;19939;-75
2022/10/31 08:12:44;;;;;;;;;;;11.60;99.90;;;;;;5082257;28;19909;-74
2022/10/31 08:15:09;;;;;;;;;;;11.70;99.90;;;;;;5081046;28;19952;-75
2022/10/31 08:17:35;;;;;;;;;;;11.80;99.90;;;;;;5081923;28;19909;-75
2022/10/31 08:20:02;;;;;;;;;;;11.80;99.90;;;;;;5047859;28;19909;-74
2022/10/31 08:22:28;;;;;;;;;;;11.90;99.90;;;;;;5082395;28;19940;-74
2022/10/31 08:24:53;;;;;;;;;;;11.90;99.90;;;;;;5082887;28;20115;-75
2022/10/31 08:27:19;;;;;;;;;;;12.00;99.90;;;;;;5082805;28;19908;-74
2022/10/31 08:29:44;;;;;;;;;;;12.10;99.90;;;;;;5065329;28;19908;-76
2022/10/31 08:32:10;;;;;;;;;;;12.10;99.90;;;;;;5064896;28;19916;-74
2022/10/31 08:34:36;;;;;;;;;;;12.20;99.90;;;;;;5082536;28;19913;-74
2022/10/31 08:37:01;;;;;;;;;;;12.20;99.90;;;;;;5081724;28;20377;-75
2022/10/31 08:39:27;;;;;;;;;;;12.30;99.90;;;;;;5082598;28;19939;-76
2022/10/31 08:41:53;;;;;;;;;;;12.30;99.90;;;;;;5082973;28;19962;-76
2022/10/31 08:44:18;;;;;;;;;;;12.40;99.90;;;;;;5085104;28;20088;-76
2022/10/31 08:46:44;;;;;;;;;;;12.40;99.90;;;;;;5051969;28;19927;-76
2022/10/31 08:49:10;;;;;;;;;;;12.50;99.90;;;;;;5068184;28;19908;-76
2022/10/31 08:51:35;;;;;;;;;;;12.50;99.90;;;;;;5068457;28;19908;-76
2022/10/31 08:54:01;;;;;;;;;;;12.60;99.90;;;;;;5051482;28;19990;-76
2022/10/31 08:56:27;;;;;;;;;;;12.60;99.90;;;;;;5086049;28;19954;-75
2022/10/31 08:58:53;;;;;;;;;;;12.70;99.90;;;;;;5051337;28;19920;-76
2022/10/31 09:01:19;;;;;;;;;;;12.70;99.90;;;;;;5037229;28;19960;-76
2022/10/31 09:03:44;;;;;;;;;;;12.80;99.90;;;;;;5087972;28;20326;-74
2022/10/31 09:06:10;;;;;;;;;;;12.80;99.90;;;;;;5053394;28;19916;-74
2022/10/31 09:08:38;;;;;;;;;;;12.90;99.90;;;;;;5069297;28;19915;-76
2022/10/31 09:11:06;;;;;;;;;;;12.90;99.90;;;;;;5070556;28;19909;-75
2022/10/31 09:13:32;;;;;;;;;;;13.00;99.90;;;;;;5086021;28;19912;-75
2022/10/31 09:15:58;;;;;;;;;;;13.00;99.90;;;;;;5087806;28;20172;-75
2022/10/31 09:18:24;;;;;;;;;;;13.10;99.90;;;;;;5085945;28;19915;-75
2022/10/31 09:20:50;;;;;;;;;;;13.10;99.90;;;;;;5051890;28;19932;-75
2022/10/31 09:23:16;;;;;;;;;;;13.20;99.90;;;;;;5084816;28;19923;-75
2022/10/31 09:25:42;;;;;;;;;;;13.20;99.90;;;;;;5086420;28;19987;-75
2022/10/31 09:28:10;;;;;;;;;;;13.30;99.90;;;;;;5051396;28;19909;-76
2022/10/31 09:30:36;;;;;;;;;;;13.40;99.90;;;;;;5052114;28;19953;-76
2022/10/31 09:33:04;;;;;;;;;;;13.40;99.90;;;;;;5051021;28;20141;-76
2022/10/31 09:35:30;;;;;;;;;;;13.50;99.90;;;;;;5067069;28;19912;-76
2022/10/31 09:37:55;;;;;;;;;;;13.50;99.90;;;;;;5082930;28;19953;-75
2022/10/31 09:40:22;;;;;;;;;;;13.60;99.90;;;;;;5066343;28;19940;-76
2022/10/31 09:43:04;;;;;;;;;;;13.60;99.90;;;;;;5050084;28;20104;-75
2022/10/31 09:46:07;;;;;;;;;;;13.60;99.90;;;;;;5084502;28;19908;-76
2022/10/31 09:48:33;;;;;;;;;;;13.70;99.90;;;;;;5049994;28;19908;-74
2022/10/31 09:51:29;;;;;;;;;;;13.90;99.90;;;;;;5084185;28;20261;-74
2022/10/31 09:54:13;;;;;;;;;;;14.10;99.90;;;;;;5051367;28;19916;-75
2022/10/31 09:56:39;;;;;;;;;;;14.20;99.90;;;;;;5083817;28;19975;-75
2022/10/31 09:59:10;;;;;;;;;;;14.40;99.90;;;;;;5066264;28;20226;-75
2022/10/31 10:01:54;;;;;;;;;;;14.50;99.90;;;;;;5050290;28;19908;-75
2022/10/31 10:04:40;;;;;;;;;;;14.70;99.90;;;;;;5049816;28;19912;-75
2022/10/31 10:07:30;;;;;;;;;;;14.90;99.90;;;;;;5082594;28;19947;-75
2022/10/31 10:09:57;;;;;;;;;;;15.10;99.90;;;;;;5048388;28;19946;-76
2022/10/31 10:12:50;;;;;;;;;;;15.30;99.90;;;;;;5065967;28;19916;-75
2022/10/31 10:15:34;;;;;;;;;;;15.40;99.90;;;;;;5083624;28;19913;-75
2022/10/31 10:18:02;;;;;;;;;;;15.60;99.90;;;;;;5083311;28;19908;-75
2022/10/31 10:20:51;;;;;;;;;;;15.80;99.90;;;;;;5079622;28;20546;-78
2022/10/31 10:23:54;;;;;;;;;;;16.00;99.90;;;;;;5060175;28;19967;-78
2022/10/31 10:26:21;;;;;;;;;;;16.30;99.90;;;;;;5068159;28;20168;-74
2022/10/31 10:28:57;;;;;;;;;;;16.40;99.90;;;;;;5066621;28;19938;-74
2022/10/31 10:31:25;;;;;;;;;;;16.60;99.90;;;;;;5084923;28;20123;-74
2022/10/31 10:34:14;;;;;;;;;;;16.80;99.90;;;;;;5066659;28;19980;-75
2022/10/31 10:36:46;;;;;;;;;;;17.00;99.90;;;;;;5068144;28;19950;-76
2022/10/31 10:39:33;;;;;;;;;;;17.20;99.90;;;;;;5066629;28;20239;-76
2022/10/31 10:47:40;;;;;;;;;;;17.90;99.90;;;;;;5054022;28;19916;-76
2022/10/31 10:50:21;;;;;;;;;;;18.10;99.90;;;;;;5049378;28;19916;-76
2022/10/31 10:52:59;;;;;;;;;;;18.40;99.90;;;;;;5065712;28;19915;-76
2022/10/31 10:55:42;;;;;;;;;;;18.60;99.90;;;;;;5065637;28;19913;-76
2022/10/31 10:58:08;;;;;;;;;;;18.60;99.90;;;;;;5083316;28;19916;-76
2022/10/31 11:00:38;;;;;;;;;;;18.60;99.90;;;;;;5048643;28;20235;-76
2022/10/31 11:03:04;;;;;;;;;;;18.70;99.90;;;;;;5065756;28;19915;-75
2022/10/31 11:05:54;;;;;;;;;;;18.60;99.90;;;;;;5081680;28;19976;-75
2022/10/31 11:08:33;;;;;;;;;;;18.60;99.90;;;;;;5044314;28;19917;-74
2022/10/31 11:11:25;;;;;;;;;;;18.50;99.90;;;;;;5044985;28;19915;-75
2022/10/31 11:13:54;;;;;;;;;;;18.30;99.90;;;;;;5045020;28;20030;-75
2022/10/31 11:16:27;;;;;;;;;;;18.20;99.90;;;;;;5044617;28;19916;-75
2022/10/31 11:18:53;;;;;;;;;;;18.20;99.90;;;;;;5045427;28;19940;-76
2022/10/31 11:21:28;;;;;;;;;;;18.10;99.90;;;;;;5028519;28;19920;-76
2022/10/31 11:24:10;;;;;;;;;;;18.10;99.90;;;;;;5044423;28;19908;-76
2022/10/31 11:26:37;;;;;;;;;;;18.20;99.90;;;;;;5050025;28;19980;-76
2022/10/31 11:29:03;;;;;;;;;;;18.20;99.90;;;;;;5044711;28;19909;-77
2022/10/31 11:31:29;;;;;;;;;;;18.20;99.90;;;;;;5045333;28;19936;-76
2022/10/31 11:34:00;;;;;;;;;;;18.20;99.90;;;;;;5045413;28;19913;-76
2022/10/31 11:36:31;;;;;;;;;;;18.20;99.90;;;;;;5044716;28;19943;-75
2022/10/31 11:38:57;;;;;;;;;;;18.20;99.90;;;;;;5061323;28;19919;-74
2022/10/31 11:41:31;;;;;;;;;;;18.20;99.90;;;;;;5031535;28;20211;-76
2022/10/31 11:43:58;;;;;;;;;;;18.30;99.90;;;;;;5064151;28;19912;-76
2022/10/31 11:46:43;;;;;;;;;;;18.30;99.90;;;;;;5047471;28;19962;-70
2022/10/31 11:49:31;;;;;;;;;;;18.40;99.90;;;;;;5081714;28;19939;-79
2022/10/31 11:51:57;;;;;;;;;;;18.50;99.90;;;;;;5082603;28;19909;-77
2022/10/31 11:54:28;;;;;;;;;;;18.50;99.90;;;;;;5047183;28;19912;-77
2022/10/31 11:56:54;;;;;;;;;;;18.60;99.90;;;;;;5063986;28;19915;-75
2022/10/31 11:59:30;;;;;;;;;;;18.60;99.90;;;;;;5047385;28;19909;-76
2022/10/31 12:01:59;;;;;;;;;;;18.70;99.90;;;;;;5082054;28;19909;-75
2022/10/31 12:04:34;;;;;;;;;;;18.80;99.90;;;;;;5064169;28;20018;-76
2022/10/31 12:06:59;;;;;;;;;;;18.90;99.90;;;;;;5082130;28;19908;-77
2022/10/31 12:09:32;;;;;;;;;;;19.10;99.90;;;;;;5080700;28;19908;-77
2022/10/31 12:12:35;;;;;;;;;;;19.20;99.90;;;;;;5064469;28;19912;-70
2022/10/31 12:15:14;;;;;;;;;;;19.30;99.90;;;;;;5082027;28;19913;-70
2022/10/31 12:17:44;;;;;;;;;;;19.50;99.90;;;;;;5085009;28;19908;-70
2022/10/31 12:20:25;;;;;;;;;;;19.80;99.90;;;;;;5085684;28;19908;-70
2022/10/31 12:22:53;;;;;;;;;;;19.90;99.90;;;;;;5085667;28;19908;-70
2022/10/31 12:25:46;;;;;;;;;;;20.10;99.90;;;;;;5085293;28;19908;-70
2022/10/31 12:28:42;;;;;;;;;;;20.30;99.90;;;;;;5070574;28;20226;-71
2022/10/31 12:31:30;;;;;;;;;;;20.50;99.90;;;;;;5085556;28;19920;-70
2022/10/31 12:34:33;;;;;;;;;;;20.70;99.90;;;;;;5084206;28;19912;-70
2022/10/31 12:37:05;;;;;;;;;;;21.00;99.90;;;;;;5084893;28;19935;-70
2022/10/31 12:40:05;;;;;;;;;;;21.20;99.90;;;;;;5085246;28;19909;-70
2022/10/31 12:43:04;;;;;;;;;;;21.30;99.90;;;;;;5056479;28;20436;-70
2022/10/31 12:45:54;;;;;;;;;;;21.30;99.90;;;;;;5066865;28;21033;-70
2022/10/31 12:48:41;;;;;;;;;;;21.30;99.90;;;;;;5069659;28;20436;-71
2022/10/31 12:51:15;;;;;;;;;;;21.30;99.90;;;;;;5085158;28;19946;-70
2022/10/31 12:53:53;;;;;;;;;;;21.20;99.90;;;;;;5084989;28;19916;-70
2022/10/31 12:56:34;;;;;;;;;;;21.10;99.90;;;;;;5067026;28;19913;-70
2022/10/31 12:59:17;;;;;;;;;;;21.10;99.90;;;;;;5084857;28;19915;-70
2022/10/31 13:01:54;;;;;;;;;;;21.00;99.90;;;;;;5066968;28;19930;-70
2022/10/31 13:04:38;;;;;;;;;;;21.10;99.90;;;;;;5067190;28;19983;-70
2022/10/31 13:07:08;;;;;;;;;;;21.00;99.90;;;;;;5083519;28;19909;-70
2022/10/31 13:09:38;;;;;;;;;;;21.00;99.90;;;;;;5050219;28;19915;-70
2022/10/31 13:12:09;;;;;;;;;;;20.90;99.90;;;;;;5067216;28;19909;-70
2022/10/31 13:14:36;;;;;;;;;;;20.80;99.90;;;;;;5066711;28;20165;-70
2022/10/31 13:17:02;;;;;;;;;;;20.60;99.90;;;;;;5083296;28;19916;-70
2022/10/31 13:19:38;;;;;;;;;;;20.50;99.90;;;;;;5050178;28;20284;-70
2022/10/31 13:22:16;;;;;;;;;;;20.40;99.90;;;;;;5083562;28;19951;-70
2022/10/31 13:24:53;;;;;;;;;;;20.20;99.90;;;;;;5066640;28;19909;-70
2022/10/31 13:27:21;;;;;;;;;;;20.00;99.90;;;;;;5065895;28;19915;-70
2022/10/31 13:30:06;;;;;;;;;;;19.90;99.90;;;;;;5066467;28;19940;-70
2022/10/31 13:33:05;;;;;;;;;;;19.70;99.90;;;;;;5066575;28;19944;-70
2022/10/31 13:35:30;;;;;;;;;;;19.60;99.90;;;;;;5064492;28;19924;-70
2022/10/31 13:38:42;;;;;;;;;;;19.50;99.90;;;;;;5083685;28;19956;-70
2022/10/31 13:41:14;;;;;;;;;;;19.40;99.90;;;;;;5053300;28;19912;-70
2022/10/31 13:43:39;;;;;;;;;;;19.30;99.90;;;;;;5073169;28;19921;-70
2022/10/31 13:46:22;;;;;;;;;;;19.10;99.90;;;;;;5073832;28;19984;-70
2022/10/31 13:48:47;;;;;;;;;;;19.00;99.90;;;;;;5063523;28;19923;-70
2022/10/31 13:51:13;;;;;;;;;;;18.90;99.90;;;;;;5084043;28;19909;-70
2022/10/31 13:53:44;;;;;;;;;;;18.80;99.90;;;;;;5043764;28;19936;-70
2022/10/31 13:56:20;;;;;;;;;;;18.80;99.90;;;;;;5073163;28;19908;-70
2022/10/31 13:58:57;;;;;;;;;;;18.70;99.90;;;;;;5057840;28;19944;-70
2022/10/31 14:01:23;;;;;;;;;;;18.70;99.90;;;;;;5072101;28;19908;-70
2022/10/31 14:03:59;;;;;;;;;;;18.70;99.90;;;;;;5070797;28;19935;-70
2022/10/31 14:06:34;;;;;;;;;;;18.70;99.90;;;;;;5074448;28;19976;-70
2022/10/31 14:09:00;;;;;;;;;;;18.70;99.90;;;;;;5055873;28;20256;-70
2022/10/31 14:11:27;;;;;;;;;;;18.70;99.90;;;;;;5055025;28;19912;-70
2022/10/31 14:13:53;;;;;;;;;;;18.70;99.90;;;;;;5053788;28;19921;-70
2022/10/31 14:16:27;;;;;;;;;;;18.70;99.90;;;;;;5055408;28;19943;-70
2022/10/31 14:19:07;;;;;;;;;;;18.70;99.90;;;;;;5055951;28;19916;-70
2022/10/31 14:21:41;;;;;;;;;;;18.70;99.90;;;;;;5055744;28;19943;-70
2022/10/31 14:24:34;;;;;;;;;;;18.70;99.90;;;;;;5038345;28;19909;-70
2022/10/31 14:27:24;;;;;;;;;;;18.60;99.90;;;;;;5079461;28;19942;-70
2022/10/31 14:29:49;;;;;;;;;;;18.50;99.90;;;;;;5057952;28;19936;-70
2022/10/31 14:32:22;;;;;;;;;;;18.40;99.90;;;;;;5071333;28;19977;-70
2022/10/31 14:34:52;;;;;;;;;;;18.40;99.90;;;;;;5054410;28;19921;-70
2022/10/31 14:37:32;;;;;;;;;;;18.30;99.90;;;;;;5073288;28;19991;-70
2022/10/31 14:40:16;;;;;;;;;;;18.20;99.90;;;;;;5063188;28;20147;-70
2022/10/31 14:43:19;;;;;;;;;;;18.20;99.90;;;;;;5063186;28;19909;-70